Time;durP1;ratioP1;P1;durP2;ratioP2;P2;SDS_P1;SDS_P2;PMS_P1;PMS_P2;Temp;Humidity;BMP_temperature;BMP_pressure;BME280_temperature;BME280_humidity;BME280_pressure;Samples;Min_cycle;Max_cycle;Signal;HPM_P1;HPM_P2
2023/12/18 00:02:00;;;;;;;30.02;4.90;;;;;;;7.40;100.00;101347.97;5061251;28;20029;-67
2023/12/18 00:04:26;;;;;;;32.63;5.20;;;;;;;7.33;100.00;101338.91;5044401;28;20094;-70
2023/12/18 00:06:52;;;;;;;35.03;5.43;;;;;;;7.40;100.00;101356.00;5061231;28;20028;-68
2023/12/18 00:09:17;;;;;;;24.60;4.82;;;;;;;7.39;100.00;101343.63;5079478;28;20020;-68
2023/12/18 00:11:42;;;;;;;24.25;5.15;;;;;;;7.40;100.00;101339.94;5059895;28;20066;-68
2023/12/18 00:14:08;;;;;;;25.05;5.30;;;;;;;7.38;100.00;101342.75;5059156;28;20028;-68
2023/12/18 00:16:33;;;;;;;22.17;4.93;;;;;;;7.36;100.00;101338.59;5059231;28;20032;-69
2023/12/18 00:18:59;;;;;;;22.52;4.90;;;;;;;7.23;100.00;101317.66;5061043;28;20035;-68
2023/12/18 00:21:24;;;;;;;21.60;5.60;;;;;;;7.29;100.00;101344.59;5044952;28;20124;-68
2023/12/18 00:23:49;;;;;;;20.40;5.38;;;;;;;7.22;100.00;101340.06;5045203;28;20083;-68
2023/12/18 00:26:15;;;;;;;25.45;5.53;;;;;;;7.31;100.00;101357.81;5079661;28;20434;-68
2023/12/18 00:28:40;;;;;;;22.30;5.10;;;;;;;7.30;100.00;101373.03;5061512;28;20483;-68
2023/12/18 00:31:05;;;;;;;24.17;5.43;;;;;;;7.33;100.00;101371.03;5078544;28;20032;-68
2023/12/18 00:33:31;;;;;;;29.02;5.68;;;;;;;7.13;100.00;101351.75;5078638;28;20036;-68
2023/12/18 00:35:56;;;;;;;21.92;4.85;;;;;;;7.24;100.00;101362.13;5079087;28;20035;-67
2023/12/18 00:38:25;;;;;;;21.90;4.93;;;;;;;7.28;100.00;101374.19;5078265;28;20032;-68
2023/12/18 00:40:50;;;;;;;15.82;3.88;;;;;;;7.33;100.00;101363.84;5060907;28;20139;-68
2023/12/18 00:43:15;;;;;;;18.10;3.88;;;;;;;7.39;100.00;101376.56;5043629;28;20123;-68
2023/12/18 00:45:41;;;;;;;15.65;3.38;;;;;;;7.46;100.00;101377.59;5077998;28;20463;-67
2023/12/18 00:48:06;;;;;;;16.05;3.55;;;;;;;7.39;100.00;101368.53;5078280;28;20172;-68
2023/12/18 00:50:32;;;;;;;13.98;3.30;;;;;;;7.46;100.00;101385.63;5077963;28;20044;-68
2023/12/18 00:52:57;;;;;;;18.52;3.38;;;;;;;7.41;100.00;101360.34;5077538;28;20016;-66
2023/12/18 00:55:23;;;;;;;13.43;3.15;;;;;;;7.42;100.00;101359.34;5077375;28;20036;-66
2023/12/18 00:57:48;;;;;;;15.82;3.33;;;;;;;7.53;100.00;101378.59;5059990;28;20028;-68
2023/12/18 01:00:14;;;;;;;22.42;3.80;;;;;;;7.53;100.00;101373.25;5059263;28;20111;-67
2023/12/18 01:02:39;;;;;;;14.32;3.88;;;;;;;7.58;100.00;101399.50;5077774;28;20483;-67
2023/12/18 01:05:05;;;;;;;12.77;3.53;;;;;;;7.58;100.00;101412.91;5077575;28;20029;-66
2023/12/18 01:07:30;;;;;;;17.95;4.15;;;;;;;7.53;100.00;101386.63;5060041;28;20033;-68
2023/12/18 01:09:58;;;;;;;10.07;3.25;;;;;;;7.58;100.00;101406.72;5060200;28;20021;-67
2023/12/18 01:12:25;;;;;;;17.25;3.97;;;;;;;7.53;100.00;101400.03;5078787;28;20071;-68
2023/12/18 01:14:51;;;;;;;17.15;3.72;;;;;;;7.56;100.00;101404.22;5060697;28;20025;-67
2023/12/18 01:17:16;;;;;;;14.10;3.40;;;;;;;7.54;100.00;101404.38;5060735;28;20081;-69
2023/12/18 01:19:41;;;;;;;12.05;3.08;;;;;;;7.54;100.00;101390.16;5078373;28;20071;-67
2023/12/18 01:22:07;;;;;;;14.27;3.40;;;;;;;7.53;100.00;101389.31;5043659;28;20041;-67
2023/12/18 01:24:32;;;;;;;10.88;2.80;;;;;;;7.50;100.00;101402.19;5078537;28;20039;-67
2023/12/18 01:26:58;;;;;;;11.35;2.90;;;;;;;7.44;100.00;101397.50;5078286;28;20526;-67
2023/12/18 01:29:23;;;;;;;13.85;2.75;;;;;;;7.48;100.00;101402.38;5059990;28;20033;-67
2023/12/18 01:31:48;;;;;;;15.63;2.88;;;;;;;7.46;100.00;101399.00;5060700;28;20067;-67
2023/12/18 01:34:14;;;;;;;12.82;2.97;;;;;;;7.44;100.00;101405.53;5060339;28;20077;-67
2023/12/18 01:36:39;;;;;;;13.60;2.70;;;;;;;7.44;100.00;101394.81;5060195;28;20032;-67
2023/12/18 01:39:04;;;;;;;13.68;2.78;;;;;;;7.44;100.00;101390.28;5078086;28;20032;-68
2023/12/18 01:41:30;;;;;;;17.20;2.67;;;;;;;7.46;100.00;101387.47;5059957;28;20080;-67
2023/12/18 01:43:55;;;;;;;11.73;2.72;;;;;;;7.46;100.00;101387.47;5062344;28;20403;-68
2023/12/18 01:46:22;;;;;;;14.40;2.55;;;;;;;7.38;100.00;101369.53;5079595;28;20032;-67
2023/12/18 01:48:47;;;;;;;11.00;2.33;;;;;;;7.46;100.00;101372.22;5073883;28;20142;-67
2023/12/18 01:51:13;;;;;;;9.25;2.00;;;;;;;7.47;100.00;101373.91;5059340;28;20082;-70
2023/12/18 01:53:42;;;;;;;14.95;2.47;;;;;;;7.46;100.00;101360.69;5077461;28;20020;-67
2023/12/18 01:56:10;;;;;;;12.13;2.38;;;;;;;7.44;100.00;101360.84;5077471;28;20127;-67
2023/12/18 01:58:36;;;;;;;9.98;2.08;;;;;;;7.47;100.00;101379.25;5059634;28;20025;-67
2023/12/18 02:01:01;;;;;;;9.77;1.90;;;;;;;7.49;100.00;101374.59;5077491;28;20032;-67
2023/12/18 02:03:29;;;;;;;11.45;1.73;;;;;;;7.50;100.00;101378.09;5078101;28;20032;-67
2023/12/18 02:05:56;;;;;;;13.80;2.40;;;;;;;7.41;100.00;101357.66;5081242;28;20028;-67
2023/12/18 02:08:22;;;;;;;10.73;2.10;;;;;;;7.49;100.00;101374.59;5064297;28;20416;-66
2023/12/18 02:10:48;;;;;;;13.13;2.33;;;;;;;7.52;100.00;101376.94;5064092;28;20057;-70
2023/12/18 02:13:13;;;;;;;15.73;1.90;;;;;;;7.51;100.00;101380.59;5082158;28;20396;-67
2023/12/18 02:15:40;;;;;;;12.85;2.20;;;;;;;7.50;100.00;101380.78;5080804;28;20043;-67
2023/12/18 02:18:05;;;;;;;10.93;2.15;;;;;;;7.51;100.00;101374.41;5062793;28;20032;-67
2023/12/18 02:20:30;;;;;;;16.42;2.38;;;;;;;7.51;100.00;101369.88;5081301;28;20033;-67
2023/12/18 02:22:56;;;;;;;23.88;3.38;;;;;;;7.47;100.00;101363.19;5080311;28;20028;-67
2023/12/18 02:25:21;;;;;;;19.92;2.65;;;;;;;7.49;100.00;101371.06;5064263;28;20039;-67
2023/12/18 02:27:49;;;;;;;14.02;2.28;;;;;;;7.48;100.00;101364.88;5064244;28;20504;-67
2023/12/18 02:30:16;;;;;;;16.75;2.97;;;;;;;7.42;100.00;101378.09;5077974;28;20081;-66
2023/12/18 02:32:42;;;;;;;16.75;2.83;;;;;;;7.48;100.00;101372.91;5079806;28;20043;-67
2023/12/18 02:35:08;;;;;;;16.27;2.80;;;;;;;7.49;100.00;101387.13;5062175;28;20032;-67
2023/12/18 02:37:33;;;;;;;18.00;2.60;;;;;;;7.49;100.00;101382.63;5079587;28;20101;-67
2023/12/18 02:39:59;;;;;;;19.90;2.58;;;;;;;7.46;100.00;101377.59;5079585;28;20546;-67
2023/12/18 02:42:24;;;;;;;20.25;2.95;;;;;;;7.46;100.00;101376.75;5061882;28;20039;-67
2023/12/18 02:44:50;;;;;;;21.45;2.90;;;;;;;7.49;100.00;101387.97;5080100;28;20032;-67
2023/12/18 02:47:15;;;;;;;18.48;2.80;;;;;;;7.47;100.00;101381.09;5079697;28;20025;-68
2023/12/18 02:49:40;;;;;;;21.85;3.20;;;;;;;7.46;100.00;101371.41;5061114;28;20119;-67
2023/12/18 02:52:06;;;;;;;23.67;3.33;;;;;;;7.50;100.00;101376.25;5061144;28;20062;-66
2023/12/18 02:54:31;;;;;;;21.20;3.28;;;;;;;7.47;100.00;101371.22;5078927;28;20088;-67
2023/12/18 02:56:56;;;;;;;21.73;3.45;;;;;;;7.42;100.00;101376.25;5060760;28;20035;-67
2023/12/18 02:59:22;;;;;;;26.40;3.47;;;;;;;7.44;100.00;101381.41;5061420;28;20051;-67
2023/12/18 03:01:47;;;;;;;21.25;3.45;;;;;;;7.42;100.00;101378.94;5079183;28;20108;-67
2023/12/18 03:04:12;;;;;;;34.33;4.15;;;;;;;7.40;100.00;101370.22;5079230;28;20020;-67
2023/12/18 03:06:38;;;;;;;24.83;3.78;;;;;;;7.38;100.00;101368.69;5044862;28;20115;-67
2023/12/18 03:09:03;;;;;;;19.35;4.47;;;;;;;7.39;100.00;101363.19;5061256;28;20107;-67
2023/12/18 03:11:30;;;;;;;25.17;4.38;;;;;;;7.32;100.00;101354.16;5061136;28;20036;-67
2023/12/18 03:13:56;;;;;;;27.98;4.70;;;;;;;7.36;100.00;101341.25;5061713;28;20399;-67
2023/12/18 03:16:21;;;;;;;19.02;4.07;;;;;;;7.38;100.00;101345.44;5078888;28;20028;-67
2023/12/18 03:18:46;;;;;;;25.38;4.13;;;;;;;7.38;100.00;101348.09;5044979;28;20482;-67
2023/12/18 03:21:12;;;;;;;30.77;5.05;;;;;;;7.37;100.00;101356.31;5061620;28;20032;-67
2023/12/18 03:23:37;;;;;;;23.73;4.97;;;;;;;7.37;100.00;101354.47;5079022;28;20081;-67
2023/12/18 03:26:03;;;;;;;31.80;4.97;;;;;;;7.35;100.00;101348.47;5078891;28;20549;-67
2023/12/18 03:28:28;;;;;;;25.60;4.13;;;;;;;7.37;100.00;101357.16;5078766;28;20029;-67
2023/12/18 03:30:53;;;;;;;23.15;4.60;;;;;;;7.36;100.00;101354.66;5061762;28;20550;-67
2023/12/18 03:33:19;;;;;;;24.00;4.57;;;;;;;7.31;100.00;101347.09;5044854;28;20047;-67
2023/12/18 03:35:44;;;;;;;29.15;4.95;;;;;;;7.28;100.00;101344.75;5060182;28;20024;-67
2023/12/18 03:38:10;;;;;;;27.02;5.13;;;;;;;7.36;100.00;101358.16;5059679;28;20585;-67
2023/12/18 03:40:35;;;;;;;39.20;5.03;;;;;;;7.39;100.00;101341.78;5077492;28;20048;-67
2023/12/18 03:43:00;;;;;;;38.78;5.53;;;;;;;7.37;100.00;101343.75;5043338;28;20039;-67
2023/12/18 03:45:26;;;;;;;44.00;5.68;;;;;;;7.40;100.00;101338.09;5077645;28;20033;-67
2023/12/18 03:47:51;;;;;;;51.33;6.82;;;;;;;7.36;100.00;101352.81;5059510;28;20029;-67
2023/12/18 03:50:16;;;;;;;41.38;5.28;;;;;;;7.40;100.00;101350.63;5065282;28;20043;-68
2023/12/18 03:52:42;;;;;;;29.63;5.30;;;;;;;7.43;100.00;101356.50;5083706;28;20115;-67
2023/12/18 03:55:07;;;;;;;57.08;5.50;;;;;;;7.41;100.00;101363.84;5083423;28;20039;-67
2023/12/18 03:57:33;;;;;;;48.17;5.68;;;;;;;7.34;100.00;101359.31;5063494;28;20029;-67
2023/12/18 03:59:58;;;;;;;42.60;6.35;;;;;;;7.39;100.00;101378.41;5077025;28;20559;-68
2023/12/18 04:02:24;;;;;;;40.13;5.75;;;;;;;7.35;100.00;101372.56;5059337;28;20028;-68
2023/12/18 04:04:52;;;;;;;42.75;5.90;;;;;;;7.36;100.00;101366.19;5078442;28;20044;-67
2023/12/18 04:07:18;;;;;;;30.40;5.45;;;;;;;7.37;100.00;101356.31;5078212;28;20107;-67
2023/12/18 04:09:43;;;;;;;51.00;6.30;;;;;;;7.38;100.00;101358.81;5078126;28;20029;-67
2023/12/18 04:12:09;;;;;;;46.05;6.35;;;;;;;7.40;100.00;101351.47;5077239;28;20047;-68
2023/12/18 04:14:34;;;;;;;38.90;5.95;;;;;;;7.40;100.00;101361.34;5059388;28;20115;-67
2023/12/18 04:16:59;;;;;;;53.33;6.30;;;;;;;7.40;100.00;101367.53;5059691;28;20028;-67
2023/12/18 04:19:25;;;;;;;35.50;5.45;;;;;;;7.37;100.00;101354.47;5059486;28;20491;-67
2023/12/18 04:21:50;;;;;;;69.43;7.28;;;;;;;7.42;100.00;101372.75;5059781;28;20080;-67
2023/12/18 04:24:16;;;;;;;46.15;5.32;;;;;;;7.42;100.00;101365.53;5077928;28;20487;-68
2023/12/18 04:26:43;;;;;;;45.38;6.97;;;;;;;7.39;100.00;101363.19;5042188;28;20458;-67
2023/12/18 04:29:08;;;;;;;89.90;7.45;;;;;;;7.35;100.00;101364.53;5077148;28;20157;-67
2023/12/18 04:31:33;;;;;;;69.82;6.93;;;;;;;7.35;100.00;101356.50;5059330;28;20062;-68
2023/12/18 04:33:59;;;;;;;140.20;7.80;;;;;;;7.34;100.00;101357.47;5042828;28;20353;-67
2023/12/18 04:36:25;;;;;;;39.50;5.68;;;;;;;7.35;100.00;101358.31;5058698;28;20479;-67
2023/12/18 04:38:50;;;;;;;74.65;8.25;;;;;;;7.30;100.00;101367.69;5076925;28;20025;-67
2023/12/18 04:41:23;;;;;;;60.92;7.60;;;;;;;7.29;100.00;101367.84;5042162;28;20044;-68
2023/12/18 04:43:49;;;;;;;69.65;6.72;;;;;;;7.29;100.00;101381.25;5042556;28;20550;-67
2023/12/18 04:46:14;;;;;;;41.15;4.97;;;;;;;7.16;100.00;101371.00;5022576;28;20119;-67
2023/12/18 04:48:42;;;;;;;111.63;9.82;;;;;;;7.30;100.00;101393.63;5057647;28;20628;-67
2023/12/18 04:51:07;;;;;;;136.90;7.20;;;;;;;7.26;100.00;101402.97;5075667;28;20040;-68
2023/12/18 04:53:33;;;;;;;148.18;8.32;;;;;;;7.24;100.00;101402.28;5059206;28;20028;-68
2023/12/18 04:55:59;;;;;;;186.10;9.57;;;;;;;7.18;100.00;101406.44;5059171;28;20063;-67
2023/12/18 04:58:24;;;;;;;233.55;10.70;;;;;;;7.25;100.00;101420.88;5076842;28;20036;-67
2023/12/18 05:00:50;;;;;;;188.18;9.93;;;;;;;7.21;100.00;101427.53;5058869;28;20353;-67
2023/12/18 05:03:15;;;;;;;320.75;14.60;;;;;;;6.98;100.00;101415.72;5058833;28;20025;-68
2023/12/18 05:05:40;;;;;;;239.77;12.05;;;;;;;6.93;100.00;101431.44;5059086;28;20506;-67
2023/12/18 05:08:06;;;;;;;139.05;9.20;;;;;;;6.86;100.00;101433.91;5076268;28;20052;-68
2023/12/18 05:10:31;;;;;;;142.05;9.82;;;;;;;6.81;100.00;101430.88;5076280;28;20043;-67
2023/12/18 05:12:57;;;;;;;387.77;14.93;;;;;;;6.63;100.00;101417.59;5058815;28;20033;-67
2023/12/18 05:15:23;;;;;;;343.83;11.48;;;;;;;6.62;100.00;101425.75;5078100;28;20028;-67
2023/12/18 05:17:49;;;;;;;234.38;9.40;;;;;;;6.61;100.00;101434.78;5077019;28;20115;-67
2023/12/18 05:20:14;;;;;;;230.13;9.95;;;;;;;6.53;100.00;101412.34;5077898;28;20044;-70
2023/12/18 05:22:40;;;;;;;91.78;7.00;;;;;;;6.68;100.00;101425.94;5077910;28;20024;-67
2023/12/18 05:25:08;;;;;;;162.95;9.70;;;;;;;6.57;100.00;101396.81;5060655;28;20028;-67
2023/12/18 05:27:33;;;;;;;64.10;7.47;;;;;;;6.79;100.00;101422.19;5078541;28;20032;-67
2023/12/18 05:29:58;;;;;;;122.57;8.45;;;;;;;6.83;100.00;101435.06;5080094;28;20092;-68
2023/12/18 05:32:24;;;;;;;135.95;10.20;;;;;;;6.78;100.00;101413.28;5060750;28;20024;-67
2023/12/18 05:34:49;;;;;;;105.50;8.95;;;;;;;6.84;100.00;101414.50;5044946;28;20033;-67
2023/12/18 05:37:15;;;;;;;82.32;9.18;;;;;;;6.88;100.00;101418.53;5044900;28;20044;-67
2023/12/18 05:39:40;;;;;;;42.88;7.22;;;;;;;6.88;100.00;101421.22;5082403;28;20056;-67
2023/12/18 05:42:05;;;;;;;72.68;8.38;;;;;;;6.86;100.00;101423.22;5085163;28;20076;-71
2023/12/18 05:44:31;;;;;;;102.90;9.73;;;;;;;6.86;100.00;101425.06;5083490;28;20037;-67
2023/12/18 05:46:56;;;;;;;148.88;10.77;;;;;;;6.75;100.00;101402.09;5032406;28;20021;-67
2023/12/18 05:49:22;;;;;;;96.25;10.52;;;;;;;6.81;100.00;101421.00;5065171;28;20020;-67
2023/12/18 05:51:47;;;;;;;141.65;10.75;;;;;;;6.75;100.00;101413.63;5048546;28;20078;-66
2023/12/18 05:54:13;;;;;;;66.43;10.15;;;;;;;6.83;100.00;101426.22;5063337;28;20120;-66
2023/12/18 05:56:38;;;;;;;159.30;11.13;;;;;;;6.82;100.00;101430.72;5061662;28;20040;-67
2023/12/18 05:59:03;;;;;;;82.10;10.82;;;;;;;6.83;100.00;101431.56;5065209;28;20028;-66
2023/12/18 06:01:29;;;;;;;177.45;11.90;;;;;;;6.68;100.00;101420.59;5064562;28;20399;-66
2023/12/18 06:03:54;;;;;;;74.15;10.10;;;;;;;6.80;100.00;101450.59;5046247;28;20127;-66
2023/12/18 06:06:20;;;;;;;109.70;10.98;;;;;;;6.80;100.00;101450.59;5081620;28;20071;-69
2023/12/18 06:08:45;;;;;;;119.78;10.50;;;;;;;6.80;100.00;101461.31;5062802;28;20096;-66
2023/12/18 06:11:10;;;;;;;141.43;11.23;;;;;;;6.72;100.00;101453.22;5080283;28;20059;-67
2023/12/18 06:13:39;;;;;;;74.30;9.02;;;;;;;6.82;100.00;101470.00;5062690;28;20047;-67
2023/12/18 06:16:04;;;;;;;49.78;6.40;;;;;;;6.86;100.00;101476.72;5083884;28;20084;-68
2023/12/18 06:18:30;;;;;;;86.90;8.57;;;;;;;6.84;100.00;101478.72;5051188;28;20060;-70
2023/12/18 06:20:55;;;;;;;147.07;9.55;;;;;;;6.85;100.00;101487.56;5085519;28;20052;-67
2023/12/18 06:23:21;;;;;;;101.03;7.60;;;;;;;6.85;100.00;101475.03;5047213;28;20051;-66
2023/12/18 06:25:46;;;;;;;52.13;5.97;;;;;;;6.87;100.00;101478.41;5059142;28;20513;-67
2023/12/18 06:28:12;;;;;;;53.92;5.65;;;;;;;6.90;100.00;101483.44;5059241;28;20024;-67
2023/12/18 06:30:37;;;;;;;67.63;5.13;;;;;;;6.93;100.00;101471.59;5063398;28;20104;-67
2023/12/18 06:33:03;;;;;;;42.38;6.15;;;;;;;6.82;100.00;101454.81;5082818;28;20035;-68
2023/12/18 06:35:28;;;;;;;73.68;6.78;;;;;;;6.97;100.00;101476.44;5083750;28;20562;-67
2023/12/18 06:37:54;;;;;;;122.20;10.43;;;;;;;6.98;100.00;101488.81;5061585;28;20028;-67
2023/12/18 06:40:19;;;;;;;127.72;8.77;;;;;;;6.97;100.00;101494.34;5063973;28;20052;-67
2023/12/18 06:42:44;;;;;;;103.38;9.02;;;;;;;6.92;100.00;101481.44;5081401;28;20494;-67
2023/12/18 06:45:10;;;;;;;103.20;9.65;;;;;;;6.95;100.00;101488.28;5040717;28;20584;-67
2023/12/18 06:47:35;;;;;;;95.65;9.40;;;;;;;6.96;100.00;101487.31;5064844;28;20036;-66
2023/12/18 06:50:01;;;;;;;124.57;9.85;;;;;;;6.92;100.00;101483.25;5081864;28;20013;-67
2023/12/18 06:52:26;;;;;;;85.75;7.50;;;;;;;6.91;100.00;101487.78;5083259;28;20107;-67
2023/12/18 06:54:51;;;;;;;60.17;7.85;;;;;;;6.91;100.00;101490.44;5047679;28;20028;-67
2023/12/18 06:57:17;;;;;;;90.70;8.20;;;;;;;6.90;100.00;101486.09;5063895;28;20510;-67
2023/12/18 06:59:42;;;;;;;83.57;10.57;;;;;;;6.80;100.00;101488.06;5082171;28;20041;-69
2023/12/18 07:02:07;;;;;;;74.97;9.75;;;;;;;6.88;100.00;101493.44;5064749;28;20032;-67
2023/12/18 07:04:34;;;;;;;88.15;8.85;;;;;;;6.91;100.00;101500.31;5082889;28;20029;-69
2023/12/18 07:07:00;;;;;;;88.30;10.18;;;;;;;6.92;100.00;101510.88;5065751;28;20038;-67
2023/12/18 07:09:25;;;;;;;79.90;8.77;;;;;;;6.93;100.00;101504.53;5083147;28;20029;-67
2023/12/18 07:11:50;;;;;;;69.50;10.20;;;;;;;6.90;100.00;101494.13;5065540;28;20040;-70
2023/12/18 07:14:17;;;;;;;36.25;7.60;;;;;;;6.88;100.00;101498.78;5083014;28;20033;-67
2023/12/18 07:16:43;;;;;;;83.65;8.68;;;;;;;6.85;100.00;101506.28;5065063;28;20035;-67
2023/12/18 07:19:09;;;;;;;118.85;9.85;;;;;;;6.84;100.00;101505.47;5048057;28;20032;-67
2023/12/18 07:21:34;;;;;;;77.80;8.15;;;;;;;6.72;100.00;101491.53;5082809;28;20131;-67
2023/12/18 07:24:00;;;;;;;46.92;7.57;;;;;;;6.75;100.00;101507.22;5063486;28;20035;-67
2023/12/18 07:26:25;;;;;;;92.80;10.15;;;;;;;6.72;100.00;101506.69;5082128;28;20032;-67
2023/12/18 07:28:50;;;;;;;96.00;8.50;;;;;;;6.66;100.00;101500.16;5082476;28;20025;-69
2023/12/18 07:31:17;;;;;;;39.15;8.13;;;;;;;6.68;100.00;101506.19;5080750;28;20143;-67
2023/12/18 07:33:43;;;;;;;82.68;8.30;;;;;;;6.65;100.00;101509.16;5080965;28;20390;-68
2023/12/18 07:36:09;;;;;;;108.82;9.63;;;;;;;6.54;100.00;101496.06;5062675;28;20037;-68
2023/12/18 07:38:35;;;;;;;65.63;7.00;;;;;;;6.51;100.00;101497.19;5080204;28;20080;-67
2023/12/18 07:41:03;;;;;;;82.00;7.95;;;;;;;6.43;100.00;101486.47;5062916;28;20091;-68
2023/12/18 07:43:28;;;;;;;105.07;9.02;;;;;;;6.53;100.00;101513.09;5080336;28;20024;-67
2023/12/18 07:45:53;;;;;;;62.17;7.88;;;;;;;6.51;100.00;101505.22;5080326;28;20030;-67
2023/12/18 07:48:21;;;;;;;89.72;8.07;;;;;;;6.48;100.00;101500.19;5081102;28;20017;-67
2023/12/18 07:50:47;;;;;;;65.72;6.65;;;;;;;6.33;100.00;101491.06;5062723;28;20032;-67
2023/12/18 07:53:13;;;;;;;154.90;9.00;;;;;;;6.47;100.00;101519.06;5081231;28;20035;-67
2023/12/18 07:55:39;;;;;;;135.52;8.10;;;;;;;6.45;100.00;101524.56;5080041;28;20040;-67
2023/12/18 07:58:04;;;;;;;162.90;9.52;;;;;;;6.46;100.00;101534.28;5080373;28;20032;-68
2023/12/18 08:00:29;;;;;;;90.15;6.40;;;;;;;6.41;100.00;101531.22;5061270;28;20044;-67
2023/12/18 08:02:55;;;;;;;96.78;7.90;;;;;;;6.43;100.00;101531.06;5061207;28;20025;-67
2023/12/18 08:05:20;;;;;;;113.00;6.95;;;;;;;6.35;100.00;101532.66;5060006;28;20135;-67
2023/12/18 08:07:46;;;;;;;96.60;6.88;;;;;;;6.37;100.00;101534.34;5078174;28;20028;-67
2023/12/18 08:10:12;;;;;;;63.00;6.25;;;;;;;6.24;100.00;101513.34;5078183;28;20051;-67
2023/12/18 08:12:38;;;;;;;87.97;5.43;;;;;;;6.34;100.00;101536.34;5078456;28;20032;-67
2023/12/18 08:15:04;;;;;;;67.20;5.03;;;;;;;6.04;100.00;101499.31;5077827;28;20033;-67
2023/12/18 08:17:37;;;;;;;29.52;3.15;;;;;;;6.28;100.00;101530.75;5061142;28;20107;-67
2023/12/18 08:20:03;;;;;;;39.50;2.88;;;;;;;6.27;100.00;101529.94;5060561;28;20024;-67
2023/12/18 08:22:29;;;;;;;51.55;3.10;;;;;;;6.26;100.00;101538.94;5079124;28;20086;-68
2023/12/18 08:24:54;;;;;;;35.70;1.98;;;;;;;6.31;100.00;101533.97;5078747;28;20039;-67
2023/12/18 08:27:20;;;;;;;82.43;5.13;;;;;;;6.25;100.00;101531.06;5044591;28;20055;-67
2023/12/18 08:29:45;;;;;;;117.10;4.82;;;;;;;6.27;100.00;101526.41;5027750;28;20044;-68
2023/12/18 08:32:10;;;;;;;77.05;4.57;;;;;;;6.27;100.00;101513.06;5060566;28;20055;-67
2023/12/18 08:34:36;;;;;;;35.58;3.35;;;;;;;6.21;100.00;101502.97;5078475;28;20108;-71
2023/12/18 08:37:03;;;;;;;61.65;3.85;;;;;;;6.12;100.00;101488.69;5061096;28;20052;-67
2023/12/18 08:39:28;;;;;;;92.32;5.28;;;;;;;6.22;100.00;101493.94;5061289;28;20031;-67
2023/12/18 08:41:54;;;;;;;61.83;3.72;;;;;;;6.25;100.00;101509.69;5061916;28;20444;-67
2023/12/18 08:44:20;;;;;;;66.60;3.78;;;;;;;6.26;100.00;101506.88;5045557;28;20434;-67
2023/12/18 08:46:45;;;;;;;51.85;3.45;;;;;;;6.27;100.00;101497.03;5045601;28;20029;-67
2023/12/18 08:49:10;;;;;;;75.07;3.03;;;;;;;6.26;100.00;101517.56;5061872;28;20125;-67
2023/12/18 08:51:36;;;;;;;31.35;2.05;;;;;;;6.25;100.00;101504.34;5079849;28;20029;-67
2023/12/18 08:54:04;;;;;;;46.95;2.67;;;;;;;6.27;100.00;101505.03;5062695;28;20047;-67
2023/12/18 08:56:33;;;;;;;69.13;2.53;;;;;;;6.26;100.00;101495.34;5062185;28;20368;-67
2023/12/18 08:59:00;;;;;;;18.17;1.13;;;;;;;6.31;100.00;101493.03;5078989;28;20067;-67
2023/12/18 09:01:26;;;;;;;35.88;1.77;;;;;;;6.29;100.00;101511.03;5060794;28;20035;-67
2023/12/18 09:03:51;;;;;;;13.55;1.20;;;;;;;6.28;100.00;101499.53;5060452;28;20395;-68
2023/12/18 09:06:17;;;;;;;24.27;1.50;;;;;;;6.25;100.00;101507.00;5060595;28;20024;-67
2023/12/18 09:08:42;;;;;;;19.50;1.27;;;;;;;6.26;100.00;101517.56;5060602;28;20483;-67
2023/12/18 09:11:08;;;;;;;34.67;2.40;;;;;;;6.24;100.00;101534.75;5059886;28;20040;-67
2023/12/18 09:13:36;;;;;;;24.00;2.78;;;;;;;6.14;100.00;101509.94;5062083;28;20089;-67
2023/12/18 09:16:04;;;;;;;29.42;2.42;;;;;;;6.23;100.00;101535.75;5048369;28;20048;-67
2023/12/18 09:18:30;;;;;;;45.42;3.17;;;;;;;6.22;100.00;101531.38;5083270;28;20024;-68
2023/12/18 09:20:55;;;;;;;27.33;2.92;;;;;;;6.27;100.00;101535.28;5081630;28;20024;-67
2023/12/18 09:23:21;;;;;;;34.63;2.53;;;;;;;6.27;100.00;101529.94;5081461;28;20044;-69
2023/12/18 09:25:46;;;;;;;29.10;2.42;;;;;;;6.29;100.00;101522.59;5081191;28;20426;-67
2023/12/18 09:28:12;;;;;;;22.60;2.22;;;;;;;6.30;100.00;101524.28;5064178;28;20089;-67
2023/12/18 09:30:38;;;;;;;58.05;3.33;;;;;;;6.25;100.00;101528.38;5063133;28;20032;-68
2023/12/18 09:33:04;;;;;;;40.20;2.80;;;;;;;6.31;100.00;101530.44;5080856;28;20502;-67
2023/12/18 09:35:29;;;;;;;48.30;2.63;;;;;;;6.28;100.00;101534.25;5063425;28;20024;-68
2023/12/18 09:37:55;;;;;;;23.17;2.35;;;;;;;6.30;100.00;101534.13;5064239;28;20130;-67
2023/12/18 09:40:20;;;;;;;28.65;2.40;;;;;;;6.31;100.00;101538.47;5057837;28;20136;-67
2023/12/18 09:42:53;;;;;;;17.98;2.13;;;;;;;6.33;100.00;101542.69;5059312;28;20025;-67
2023/12/18 09:45:23;;;;;;;28.30;2.53;;;;;;;6.35;100.00;101534.50;5059818;28;20025;-67
2023/12/18 09:47:49;;;;;;;45.88;3.20;;;;;;;6.36;100.00;101541.53;5059636;28;20064;-68
2023/12/18 09:50:15;;;;;;;78.18;3.47;;;;;;;6.24;100.00;101529.38;5061652;28;20024;-68
2023/12/18 09:52:49;;;;;;;31.35;3.70;;;;;;;6.40;100.00;101560.78;5068163;28;20395;-69
2023/12/18 09:55:15;;;;;;;66.38;3.60;;;;;;;6.39;100.00;101559.94;5067956;28;20064;-68
2023/12/18 09:57:41;;;;;;;32.40;3.08;;;;;;;6.32;100.00;101542.81;5067018;28;20087;-68
2023/12/18 10:00:09;;;;;;;29.52;2.83;;;;;;;6.44;100.00;101565.66;5066254;28;20415;-68
2023/12/18 10:02:38;;;;;;;29.20;3.28;;;;;;;6.48;100.00;101568.84;5067073;28;20033;-68
2023/12/18 10:05:03;;;;;;;48.88;3.80;;;;;;;6.48;100.00;101572.38;5052142;28;20024;-68
2023/12/18 10:07:29;;;;;;;26.33;4.22;;;;;;;6.51;100.00;101568.56;5066718;28;20054;-68
2023/12/18 10:09:54;;;;;;;59.50;4.18;;;;;;;6.50;100.00;101570.41;5070023;28;20040;-69
2023/12/18 10:12:20;;;;;;;78.57;5.10;;;;;;;6.54;100.00;101576.28;5069836;28;20176;-71
2023/12/18 10:14:45;;;;;;;63.50;4.68;;;;;;;6.56;100.00;101583.16;5068293;28;20036;-68
2023/12/18 10:17:11;;;;;;;57.03;4.85;;;;;;;6.57;100.00;101581.31;5058773;28;20036;-68
2023/12/18 10:19:41;;;;;;;57.97;4.90;;;;;;;6.58;100.00;101577.63;5059219;28;20035;-68
2023/12/18 10:22:08;;;;;;;38.28;3.95;;;;;;;6.56;100.00;101583.16;5043591;28;20090;-68
2023/12/18 10:24:33;;;;;;;114.18;6.78;;;;;;;6.54;100.00;101563.75;5067431;28;20025;-70
2023/12/18 10:26:58;;;;;;;39.65;3.70;;;;;;;6.57;100.00;101562.59;5051678;28;20029;-68
2023/12/18 10:29:24;;;;;;;36.85;3.88;;;;;;;6.59;100.00;101569.47;5068274;28;20029;-68
2023/12/18 10:31:49;;;;;;;44.42;3.80;;;;;;;6.60;100.00;101556.94;5068597;28;20033;-69
2023/12/18 10:34:17;;;;;;;49.05;5.03;;;;;;;6.64;100.00;101563.66;5069256;28;20029;-68
2023/12/18 10:36:43;;;;;;;110.53;7.28;;;;;;;6.65;100.00;101559.13;5069964;28;20072;-69
2023/12/18 10:39:12;;;;;;;72.55;5.40;;;;;;;6.65;100.00;101561.81;5069392;28;20052;-68
2023/12/18 10:41:40;;;;;;;26.23;4.90;;;;;;;6.69;100.00;101561.38;5069633;28;20056;-68
2023/12/18 10:44:07;;;;;;;43.47;4.90;;;;;;;6.68;100.00;101564.19;5071609;28;20107;-69
2023/12/18 10:46:34;;;;;;;48.42;4.40;;;;;;;6.62;100.00;101543.41;5070770;28;20052;-68
2023/12/18 10:49:03;;;;;;;65.88;6.20;;;;;;;6.62;100.00;101536.22;5070648;28;20021;-68
2023/12/18 10:51:33;;;;;;;76.90;3.55;;;;;;;6.74;100.00;101547.53;5070339;28;20036;-69
2023/12/18 10:53:59;;;;;;;57.60;3.63;;;;;;;6.75;100.00;101535.81;5071175;28;20033;-69
2023/12/18 10:56:27;;;;;;;25.95;3.00;;;;;;;6.70;100.00;101533.63;5070986;28;20040;-68
2023/12/18 10:58:56;;;;;;;15.07;3.08;;;;;;;6.66;100.00;101528.75;5064450;28;20031;-69
2023/12/18 11:01:24;;;;;;;27.10;3.05;;;;;;;6.67;100.00;101522.41;5057424;28;20037;-69
2023/12/18 11:03:50;;;;;;;55.88;3.80;;;;;;;6.69;100.00;101523.94;5058378;28;20021;-68
2023/12/18 11:06:17;;;;;;;57.17;3.22;;;;;;;6.58;100.00;101505.44;5058545;28;20083;-69
2023/12/18 11:08:43;;;;;;;50.05;3.30;;;;;;;6.68;100.00;101524.06;5056886;28;20147;-68